createdAt,value
2022-12-31T00:01:10.467Z,96619.19
2022-12-31T00:03:39.815Z,96605.41
2022-12-31T00:06:16.905Z,96599.28
2022-12-31T00:08:47.128Z,96593.97
2022-12-31T00:11:15.946Z,96594.94
2022-12-31T00:13:46.764Z,96598.13
2022-12-31T00:16:17.210Z,96583.91
2022-12-31T00:18:47.015Z,96579.84
2022-12-31T00:21:16.491Z,96601.56
2022-12-31T00:23:46.581Z,96605.50
2022-12-31T00:26:16.555Z,96607.69
2022-12-31T00:28:45.848Z,96615.34
2022-12-31T00:31:16.980Z,96614.69
2022-12-31T00:33:45.923Z,96613.97
2022-12-31T00:36:16.351Z,96622.31
2022-12-31T00:38:48.618Z,96625.38
2022-12-31T00:41:18.417Z,96642.06
2022-12-31T00:43:46.722Z,96657.38
2022-12-31T00:46:15.745Z,96673.03
2022-12-31T00:48:44.412Z,96668.44
2022-12-31T00:51:15.096Z,96667.25
2022-12-31T00:53:43.698Z,96666.63
2022-12-31T00:56:17.261Z,96669.66
2022-12-31T00:58:46.209Z,96683.84
2022-12-31T01:01:18.415Z,96672.28
2022-12-31T01:03:48.046Z,96673.00
2022-12-31T01:06:17.066Z,96681.56
2022-12-31T01:08:45.905Z,96692.59
2022-12-31T01:11:22.716Z,96698.28
2022-12-31T01:13:53.965Z,96697.72
2022-12-31T01:16:23.963Z,96695.84
2022-12-31T01:18:52.707Z,96695.66
2022-12-31T01:21:22.079Z,96701.81
2022-12-31T01:23:50.742Z,96708.00
2022-12-31T01:26:21.261Z,96708.03
2022-12-31T01:28:49.853Z,96691.66
2022-12-31T01:31:20.244Z,96703.38
2022-12-31T01:33:49.352Z,96717.03
2022-12-31T01:36:25.222Z,96723.06
2022-12-31T01:38:54.785Z,96720.31
2022-12-31T01:41:27.880Z,96720.69
2022-12-31T01:43:59.303Z,96725.66
2022-12-31T01:46:40.385Z,96718.84
2022-12-31T01:49:15.647Z,96712.25
2022-12-31T01:51:46.948Z,96701.41
2022-12-31T01:54:18.608Z,96707.72
2022-12-31T01:56:51.811Z,96721.22
2022-12-31T01:59:22.028Z,96720.06
2022-12-31T02:01:54.080Z,96720.28
2022-12-31T02:04:25.219Z,96739.19
2022-12-31T02:06:56.696Z,96739.09
2022-12-31T02:09:25.412Z,96741.44
2022-12-31T02:11:55.552Z,96737.88
2022-12-31T02:14:30.371Z,96744.13
2022-12-31T02:17:04.702Z,96745.94
2022-12-31T02:20:13.043Z,96747.28
2022-12-31T02:23:12.216Z,96735.59
2022-12-31T02:26:06.209Z,96729.66
2022-12-31T02:28:56.837Z,96730.78
2022-12-31T02:31:32.069Z,96737.69
2022-12-31T02:34:07.503Z,96747.00
2022-12-31T02:36:40.268Z,96755.06
2022-12-31T02:39:10.639Z,96748.81
2022-12-31T02:41:51.319Z,96753.31
2022-12-31T02:44:24.715Z,96751.31
2022-12-31T02:47:11.804Z,96749.91
2022-12-31T02:49:49.211Z,96753.38
2022-12-31T02:52:26.639Z,96754.44
2022-12-31T02:55:04.252Z,96760.72
2022-12-31T02:57:40.165Z,96774.13
2022-12-31T03:00:30.227Z,96777.22
2022-12-31T03:03:31.863Z,96764.84
2022-12-31T03:06:03.281Z,96761.59
2022-12-31T03:08:32.075Z,96775.28
2022-12-31T03:11:20.144Z,96767.44
2022-12-31T03:13:47.397Z,96764.25
2022-12-31T03:16:15.902Z,96768.03
2022-12-31T03:18:58.130Z,96765.78
2022-12-31T03:21:45.068Z,96758.56
2022-12-31T03:24:30.844Z,96739.75
2022-12-31T03:26:58.990Z,96737.19
2022-12-31T03:29:27.317Z,96728.94
2022-12-31T03:31:55.669Z,96724.88
2022-12-31T03:34:23.805Z,96724.22
2022-12-31T03:36:53.354Z,96722.75
2022-12-31T03:39:21.423Z,96732.81
2022-12-31T03:41:49.793Z,96749.41
2022-12-31T03:44:18.915Z,96751.47
2022-12-31T03:46:47.452Z,96748.03
2022-12-31T03:49:15.850Z,96745.22
2022-12-31T03:51:44.118Z,96752.25
2022-12-31T03:54:13.801Z,96748.47
2022-12-31T03:56:42.325Z,96755.47
2022-12-31T03:59:10.487Z,96758.22
2022-12-31T04:01:38.759Z,96753.78
2022-12-31T04:04:06.977Z,96749.50
2022-12-31T04:06:35.937Z,96740.06
2022-12-31T04:09:04.316Z,96732.94
2022-12-31T04:11:33.985Z,96737.56
2022-12-31T04:14:02.473Z,96723.91
2022-12-31T04:16:30.944Z,96722.16
2022-12-31T04:18:59.217Z,96719.94
2022-12-31T04:21:33.103Z,96731.13
2022-12-31T04:24:03.850Z,96739.75
2022-12-31T04:26:33.859Z,96724.75
2022-12-31T04:29:02.264Z,96733.06
2022-12-31T04:31:30.598Z,96734.84
2022-12-31T04:33:58.757Z,96731.63
2022-12-31T04:36:27.001Z,96728.34
2022-12-31T04:38:56.146Z,96735.41
2022-12-31T04:41:27.232Z,96737.56
2022-12-31T04:43:59.090Z,96731.66
2022-12-31T04:46:29.729Z,96732.41
2022-12-31T04:48:57.934Z,96732.66
2022-12-31T04:51:28.976Z,96728.50
2022-12-31T04:53:57.711Z,96735.41
2022-12-31T04:56:26.886Z,96728.66
2022-12-31T04:58:56.803Z,96728.25
2022-12-31T05:01:25.432Z,96735.34
2022-12-31T05:03:53.698Z,96737.34
2022-12-31T05:06:24.579Z,96744.38
2022-12-31T05:08:53.002Z,96737.31
2022-12-31T05:11:21.866Z,96729.88
2022-12-31T05:13:50.843Z,96728.41
2022-12-31T05:16:20.382Z,96723.50
2022-12-31T05:18:49.118Z,96721.44
2022-12-31T05:21:21.419Z,96726.06
2022-12-31T05:23:50.287Z,96721.31
2022-12-31T05:26:18.564Z,96726.00
2022-12-31T05:28:47.129Z,96725.00
2022-12-31T05:31:15.760Z,96718.25
2022-12-31T05:33:45.676Z,96737.22
2022-12-31T05:36:14.786Z,96743.94
2022-12-31T05:38:44.164Z,96729.59
2022-12-31T05:41:12.751Z,96726.88
2022-12-31T05:43:40.971Z,96731.38
2022-12-31T05:46:09.996Z,96733.09
2022-12-31T05:48:38.454Z,96737.81
2022-12-31T05:51:08.327Z,96730.81
2022-12-31T05:53:36.966Z,96738.78
2022-12-31T05:56:05.672Z,96739.50
2022-12-31T05:58:34.041Z,96731.34
2022-12-31T06:01:02.259Z,96743.78
2022-12-31T06:03:30.827Z,96745.72
2022-12-31T06:05:59.157Z,96733.72
2022-12-31T06:08:28.956Z,96743.47
2022-12-31T06:10:57.160Z,96754.84
2022-12-31T06:13:25.335Z,96745.97
2022-12-31T06:15:53.536Z,96749.16
2022-12-31T06:18:21.778Z,96748.28
2022-12-31T06:20:50.017Z,96737.09
2022-12-31T06:23:18.654Z,96746.88
2022-12-31T06:25:48.205Z,96743.13
2022-12-31T06:28:20.289Z,96758.47
2022-12-31T06:30:49.315Z,96765.00
2022-12-31T06:33:18.237Z,96782.13
2022-12-31T06:35:46.498Z,96782.09
2022-12-31T06:38:14.556Z,96771.06
2022-12-31T06:40:43.071Z,96782.25
2022-12-31T06:43:12.821Z,96786.53
2022-12-31T06:45:42.479Z,96797.56
2022-12-31T06:48:10.723Z,96790.78
2022-12-31T06:50:39.500Z,96795.97
2022-12-31T06:53:08.189Z,96783.88
2022-12-31T06:55:37.497Z,96786.97
2022-12-31T06:58:06.855Z,96779.44
2022-12-31T07:00:37.241Z,96781.97
2022-12-31T07:03:20.965Z,96776.25
2022-12-31T07:05:53.695Z,96752.56
2022-12-31T07:08:42.074Z,96743.94
2022-12-31T07:11:19.777Z,96751.66
2022-12-31T07:14:03.010Z,96751.97
2022-12-31T07:16:41.192Z,96754.72
2022-12-31T07:19:24.722Z,96750.34
2022-12-31T07:21:55.025Z,96760.19
2022-12-31T07:24:23.965Z,96772.72
2022-12-31T07:27:06.393Z,96779.09
2022-12-31T07:29:48.131Z,96784.31
2022-12-31T07:32:31.689Z,96790.47
2022-12-31T07:35:11.013Z,96800.03
2022-12-31T07:37:46.521Z,96796.72
2022-12-31T07:40:20.956Z,96803.38
2022-12-31T07:43:05.634Z,96813.13
2022-12-31T07:45:39.507Z,96823.13
2022-12-31T07:48:23.083Z,96821.88
2022-12-31T07:50:54.509Z,96829.69
2022-12-31T07:53:23.932Z,96828.19
2022-12-31T07:55:56.893Z,96817.06
2022-12-31T07:58:33.777Z,96810.50
2022-12-31T08:01:04.215Z,96807.09
2022-12-31T08:03:47.832Z,96823.06
2022-12-31T08:06:26.127Z,96798.41
2022-12-31T08:09:03.839Z,96805.38
2022-12-31T08:11:39.485Z,96815.00
2022-12-31T08:14:11.292Z,96821.88
2022-12-31T08:16:40.633Z,96815.09
2022-12-31T08:19:23.835Z,96820.53
2022-12-31T08:22:14.766Z,96829.00
2022-12-31T08:24:55.932Z,96819.25
2022-12-31T08:27:33.237Z,96833.47
2022-12-31T08:30:07.181Z,96840.44
2022-12-31T08:32:43.373Z,96832.91
2022-12-31T08:35:26.379Z,96829.44
2022-12-31T08:38:02.072Z,96833.53
2022-12-31T08:40:48.916Z,96845.63
2022-12-31T08:43:32.306Z,96850.56
2022-12-31T08:46:01.978Z,96856.22
2022-12-31T08:48:38.854Z,96850.41
2022-12-31T08:51:16.675Z,96846.13
2022-12-31T08:53:45.791Z,96853.91
2022-12-31T08:56:26.248Z,96844.25
2022-12-31T08:59:14.932Z,96853.97
2022-12-31T09:02:02.123Z,96856.22
2022-12-31T09:04:42.331Z,96855.09
2022-12-31T09:07:14.993Z,96854.75
2022-12-31T09:09:53.648Z,96860.09
2022-12-31T09:12:30.071Z,96863.16
2022-12-31T09:15:05.112Z,96865.25
2022-12-31T09:17:49.177Z,96869.06
2022-12-31T09:20:24.872Z,96863.13
2022-12-31T09:22:56.051Z,96876.47
2022-12-31T09:25:26.758Z,96865.81
2022-12-31T09:28:09.659Z,96849.31
2022-12-31T09:30:47.274Z,96845.78
2022-12-31T09:33:27.217Z,96853.03
2022-12-31T09:35:59.412Z,96836.72
2022-12-31T09:38:37.472Z,96833.91
2022-12-31T09:41:16.737Z,96847.06
2022-12-31T09:44:24.901Z,96833.28
2022-12-31T09:47:30.034Z,96832.63
2022-12-31T09:50:25.190Z,96820.41
2022-12-31T09:53:09.857Z,96824.41
2022-12-31T09:55:49.677Z,96815.09
2022-12-31T09:58:31.483Z,96822.78
2022-12-31T10:01:08.053Z,96830.41
2022-12-31T10:03:50.397Z,96832.31
2022-12-31T10:06:24.496Z,96848.97
2022-12-31T10:09:09.808Z,96844.28
2022-12-31T10:12:04.673Z,96862.25
2022-12-31T10:14:53.935Z,96859.94
2022-12-31T10:17:37.914Z,96868.31
2022-12-31T10:20:37.760Z,96859.94
2022-12-31T10:23:28.511Z,96859.47
2022-12-31T10:26:22.379Z,96860.16
2022-12-31T10:28:57.055Z,96859.50
2022-12-31T10:31:39.406Z,96849.63
2022-12-31T10:34:20.179Z,96859.34
2022-12-31T10:37:03.599Z,96853.09
2022-12-31T10:39:47.018Z,96838.41
2022-12-31T10:42:53.192Z,96838.81
2022-12-31T10:45:53.379Z,96843.88
2022-12-31T10:49:00.364Z,96836.44
2022-12-31T10:52:00.832Z,96835.25
2022-12-31T10:55:10.594Z,96834.84
2022-12-31T10:58:04.740Z,96832.72
2022-12-31T11:00:41.904Z,96838.91
2022-12-31T11:04:03.135Z,96837.59
2022-12-31T11:07:16.254Z,96838.00
2022-12-31T11:10:04.478Z,96835.19
2022-12-31T11:13:00.617Z,96827.97
2022-12-31T11:15:50.176Z,96818.78
2022-12-31T11:18:32.338Z,96824.41
2022-12-31T11:21:18.363Z,96823.28
2022-12-31T11:23:57.763Z,96824.38
2022-12-31T11:26:40.937Z,96830.66
2022-12-31T11:29:25.541Z,96833.59
2022-12-31T11:32:11.471Z,96838.16
2022-12-31T11:35:07.889Z,96827.34
2022-12-31T11:37:45.735Z,96832.94
2022-12-31T11:40:43.203Z,96840.50
2022-12-31T11:43:23.550Z,96816.84
2022-12-31T11:46:19.673Z,96823.47
2022-12-31T11:49:08.987Z,96824.41
2022-12-31T11:51:53.956Z,96823.81
2022-12-31T11:54:43.732Z,96833.50
2022-12-31T11:57:22.129Z,96824.72
2022-12-31T11:59:53.246Z,96834.59
2022-12-31T12:02:29.440Z,96841.16
2022-12-31T12:05:08.413Z,96830.09
2022-12-31T12:07:40.603Z,96828.34
2022-12-31T12:10:22.433Z,96815.53
2022-12-31T12:12:52.624Z,96827.53
2022-12-31T12:15:28.266Z,96836.72
2022-12-31T12:17:59.406Z,96830.69
2022-12-31T12:20:33.663Z,96830.22
2022-12-31T12:23:14.492Z,96838.00
2022-12-31T12:25:45.537Z,96842.78
2022-12-31T12:28:25.124Z,96828.75
2022-12-31T12:31:00.270Z,96833.50
2022-12-31T12:33:30.873Z,96844.91
2022-12-31T12:36:10.206Z,96840.28
2022-12-31T12:38:40.450Z,96833.31
2022-12-31T12:41:13.679Z,96840.38
2022-12-31T12:43:42.134Z,96840.03
2022-12-31T12:46:22.091Z,96846.78
2022-12-31T12:48:57.164Z,96832.03
2022-12-31T12:51:38.748Z,96839.81
2022-12-31T12:54:20.755Z,96830.06
2022-12-31T12:56:57.124Z,96850.16
2022-12-31T12:59:50.573Z,96857.34
2022-12-31T13:02:38.766Z,96846.28
2022-12-31T13:05:25.957Z,96858.53
2022-12-31T13:08:07.535Z,96857.06
2022-12-31T13:10:53.016Z,96864.13
2022-12-31T13:13:30.534Z,96858.56
2022-12-31T13:16:06.391Z,96860.50
2022-12-31T13:18:45.681Z,96855.28
2022-12-31T13:21:33.243Z,96841.78
2022-12-31T13:24:09.052Z,96850.69
2022-12-31T13:26:46.457Z,96841.19
2022-12-31T13:29:18.435Z,96861.25
2022-12-31T13:31:48.581Z,96867.41
2022-12-31T13:34:20.492Z,96871.66
2022-12-31T13:36:51.888Z,96878.47
2022-12-31T13:39:24.647Z,96887.09
2022-12-31T13:42:00.590Z,96902.06
2022-12-31T13:44:32.302Z,96895.06
2022-12-31T13:47:07.773Z,96896.94
2022-12-31T13:49:43.800Z,96892.72
2022-12-31T13:52:26.091Z,96883.84
2022-12-31T13:55:01.149Z,96876.31
2022-12-31T13:57:42.061Z,96867.97
2022-12-31T14:00:21.775Z,96879.47
2022-12-31T14:03:03.904Z,96867.25
2022-12-31T14:05:37.375Z,96874.88
2022-12-31T14:08:07.744Z,96871.31
2022-12-31T14:10:53.286Z,96881.88
2022-12-31T14:13:38.276Z,96886.91
2022-12-31T14:16:19.885Z,96886.13
2022-12-31T14:18:56.381Z,96892.31
2022-12-31T14:21:29.770Z,96899.00
2022-12-31T14:24:06.641Z,96898.47
2022-12-31T14:26:39.439Z,96881.41
2022-12-31T14:29:20.339Z,96889.69
2022-12-31T14:32:21.782Z,96885.09
2022-12-31T14:35:01.114Z,96889.88
2022-12-31T14:37:39.221Z,96892.28
2022-12-31T14:40:19.583Z,96894.22
2022-12-31T14:43:02.320Z,96899.97
2022-12-31T14:45:46.692Z,96901.09
2022-12-31T14:48:30.217Z,96895.84
2022-12-31T14:51:01.976Z,96904.25
2022-12-31T14:53:31.760Z,96899.97
2022-12-31T14:56:02.681Z,96905.22
2022-12-31T14:58:36.768Z,96913.88
2022-12-31T15:01:22.575Z,96917.28
2022-12-31T15:03:51.456Z,96915.38
2022-12-31T15:06:39.085Z,96925.28
2022-12-31T15:09:19.301Z,96924.38
2022-12-31T15:12:11.020Z,96923.19
2022-12-31T15:14:55.161Z,96930.25
2022-12-31T15:17:37.490Z,96935.16
2022-12-31T15:20:20.665Z,96936.81
2022-12-31T15:22:50.401Z,96942.28
2022-12-31T15:25:35.227Z,96953.97
2022-12-31T15:28:09.702Z,96948.72
2022-12-31T15:30:43.301Z,96951.63
2022-12-31T15:33:21.311Z,96960.91
2022-12-31T15:35:52.666Z,96943.75
2022-12-31T15:38:33.715Z,96962.88
2022-12-31T15:41:13.433Z,96959.50
2022-12-31T15:43:48.408Z,96974.25
2022-12-31T15:46:20.080Z,96956.56
2022-12-31T15:49:03.655Z,96955.66
2022-12-31T15:51:43.755Z,96952.53
2022-12-31T15:54:24.287Z,96958.69
2022-12-31T15:59:24.708Z,96974.47
2022-12-31T16:01:56.189Z,96986.16
2022-12-31T16:04:29.268Z,96976.66
2022-12-31T16:07:01.509Z,96976.88
2022-12-31T16:09:34.240Z,96975.22
2022-12-31T16:12:09.257Z,96985.47
2022-12-31T16:14:39.438Z,96988.69
2022-12-31T16:17:08.774Z,96994.09
2022-12-31T16:19:46.359Z,96988.09
2022-12-31T16:22:16.913Z,96990.28
2022-12-31T16:25:19.529Z,96995.69
2022-12-31T16:27:36.764Z,96995.59
2022-12-31T16:30:08.531Z,97004.31
2022-12-31T16:32:39.849Z,97003.31
2022-12-31T16:35:24.544Z,96996.81
2022-12-31T16:38:03.760Z,97003.22
2022-12-31T16:40:32.379Z,97015.06
2022-12-31T16:43:01.598Z,97012.28
2022-12-31T16:45:33.477Z,97020.63
2022-12-31T16:48:16.644Z,97022.09
2022-12-31T16:50:48.332Z,97027.16
2022-12-31T16:53:20.987Z,97034.41
2022-12-31T16:55:55.257Z,97035.63
2022-12-31T16:58:29.612Z,97028.59
2022-12-31T17:01:08.576Z,97033.91
2022-12-31T17:03:40.113Z,97033.59
2022-12-31T17:06:16.292Z,97034.72
2022-12-31T17:08:46.822Z,97041.81
2022-12-31T17:11:25.340Z,97044.63
2022-12-31T17:13:57.031Z,97043.38
2022-12-31T17:16:26.243Z,97046.63
2022-12-31T17:18:54.942Z,97036.00
2022-12-31T17:21:28.761Z,97019.75
2022-12-31T17:24:01.784Z,97022.50
2022-12-31T17:26:32.228Z,97024.16
2022-12-31T17:29:02.646Z,97021.63
2022-12-31T17:31:34.520Z,97025.16
2022-12-31T17:34:20.455Z,97017.66
2022-12-31T17:37:02.262Z,97021.94
2022-12-31T17:39:44.268Z,97024.31
2022-12-31T17:42:13.811Z,97027.84
2022-12-31T17:44:44.555Z,97032.34
2022-12-31T17:47:15.000Z,97029.28
2022-12-31T17:49:46.831Z,97023.25
2022-12-31T17:52:17.839Z,97019.78
2022-12-31T17:54:45.961Z,97018.56
2022-12-31T17:57:26.001Z,97025.28
2022-12-31T17:59:54.644Z,97023.47
2022-12-31T18:02:22.910Z,97020.78
2022-12-31T18:04:51.576Z,97010.59
2022-12-31T18:07:21.255Z,97010.81
2022-12-31T18:09:49.475Z,97020.81
2022-12-31T18:12:18.679Z,97029.41
2022-12-31T18:14:47.059Z,97021.09
2022-12-31T18:17:17.653Z,97018.25
2022-12-31T18:20:04.106Z,97028.06
2022-12-31T18:22:36.180Z,97028.38
2022-12-31T18:25:06.861Z,97028.88
2022-12-31T18:27:35.590Z,97029.16
2022-12-31T18:30:06.028Z,97030.63
2022-12-31T18:32:36.144Z,97032.69
2022-12-31T18:35:05.040Z,97033.91
2022-12-31T18:37:36.504Z,97045.19
2022-12-31T18:40:06.128Z,97052.81
2022-12-31T18:42:34.266Z,97048.34
2022-12-31T18:45:02.659Z,97056.81
2022-12-31T18:47:37.327Z,97061.63
2022-12-31T18:50:07.590Z,97060.19
2022-12-31T18:52:37.024Z,97051.38
2022-12-31T18:55:23.612Z,97048.19
2022-12-31T18:57:53.148Z,97044.38
2022-12-31T19:00:21.475Z,97038.72
2022-12-31T19:02:49.900Z,97031.13
2022-12-31T19:05:25.540Z,97019.63
2022-12-31T19:07:55.247Z,97027.91
2022-12-31T19:10:25.256Z,97013.03
2022-12-31T19:12:53.894Z,97012.88
2022-12-31T19:15:27.366Z,97031.28
2022-12-31T19:17:55.797Z,97012.38
2022-12-31T19:20:24.877Z,97022.16
2022-12-31T19:22:53.677Z,97020.31
2022-12-31T19:25:25.035Z,97022.06
2022-12-31T19:27:54.448Z,97011.19
2022-12-31T19:30:25.077Z,97022.69
2022-12-31T19:32:53.799Z,97012.78
2022-12-31T19:35:22.869Z,97014.41
2022-12-31T19:37:53.782Z,97021.78
2022-12-31T19:40:27.289Z,97028.41
2022-12-31T19:42:56.345Z,97006.81
2022-12-31T19:45:26.466Z,97024.72
2022-12-31T19:47:56.158Z,97013.31
2022-12-31T19:50:26.870Z,97028.41
2022-12-31T19:52:58.585Z,97027.50
2022-12-31T19:55:28.453Z,97024.94
2022-12-31T19:57:57.076Z,97030.69
2022-12-31T20:00:25.282Z,97036.00
2022-12-31T20:02:53.483Z,97032.88
2022-12-31T20:05:22.162Z,97024.88
2022-12-31T20:07:50.587Z,97041.25
2022-12-31T20:10:18.818Z,97028.25
2022-12-31T20:12:48.887Z,97033.84
2022-12-31T20:15:17.317Z,97030.78
2022-12-31T20:17:45.736Z,97031.63
2022-12-31T20:20:14.356Z,97043.78
2022-12-31T20:22:42.540Z,97041.53
2022-12-31T20:25:10.915Z,97040.84
2022-12-31T20:27:39.862Z,97040.16
2022-12-31T20:30:12.824Z,97048.84
2022-12-31T20:32:41.130Z,97038.53
2022-12-31T20:35:09.622Z,97041.72
2022-12-31T20:37:37.885Z,97035.00
2022-12-31T20:40:07.240Z,97039.69
2022-12-31T20:42:36.670Z,97032.03
2022-12-31T20:45:05.404Z,97030.56
2022-12-31T20:47:35.468Z,97023.50
2022-12-31T20:50:12.204Z,97013.38
2022-12-31T20:52:40.889Z,97017.44
2022-12-31T20:55:10.147Z,97032.22
2022-12-31T20:57:38.851Z,97025.09
2022-12-31T21:00:08.845Z,97033.78
2022-12-31T21:02:42.609Z,97040.28
2022-12-31T21:05:12.172Z,97028.00
2022-12-31T21:07:40.641Z,97021.38
2022-12-31T21:10:09.569Z,97024.91
2022-12-31T21:12:53.264Z,97033.06
2022-12-31T21:15:21.988Z,97037.09
2022-12-31T21:17:51.754Z,97034.69
2022-12-31T21:20:20.178Z,97038.69
2022-12-31T21:22:48.313Z,97029.91
2022-12-31T21:25:16.648Z,97035.78
2022-12-31T21:27:45.139Z,97028.00
2022-12-31T21:30:19.271Z,97045.63
2022-12-31T21:32:48.008Z,97027.88
2022-12-31T21:38:08.451Z,97029.34
2022-12-31T21:40:36.864Z,97016.91
2022-12-31T21:43:05.320Z,97016.41
2022-12-31T21:45:33.901Z,97010.84
2022-12-31T21:48:20.064Z,97012.94
2022-12-31T21:50:51.461Z,97002.69
2022-12-31T21:53:25.382Z,97001.75
2022-12-31T21:56:11.604Z,97001.66
2022-12-31T21:58:41.389Z,96992.09
2022-12-31T22:01:34.110Z,96977.41
2022-12-31T22:04:02.714Z,96986.69
2022-12-31T22:06:34.476Z,96991.09
2022-12-31T22:09:03.085Z,96993.56
2022-12-31T22:11:31.443Z,96996.44
2022-12-31T22:13:59.908Z,96989.31
2022-12-31T22:16:28.230Z,97002.25
2022-12-31T22:18:57.236Z,97005.13
2022-12-31T22:21:26.828Z,97013.50
2022-12-31T22:23:58.757Z,97010.44
2022-12-31T22:26:29.884Z,97018.88
2022-12-31T22:28:59.778Z,97011.19
2022-12-31T22:31:31.401Z,97019.78
2022-12-31T22:34:02.131Z,97032.53
2022-12-31T22:36:31.015Z,97039.81
2022-12-31T22:39:01.220Z,97030.78
2022-12-31T22:41:29.987Z,97040.34
2022-12-31T22:44:04.227Z,97038.53
2022-12-31T22:46:35.500Z,97048.38
2022-12-31T22:49:05.854Z,97036.50
2022-12-31T22:51:57.197Z,97024.94
2022-12-31T22:54:24.176Z,97039.72
2022-12-31T22:56:53.150Z,97033.97
2022-12-31T22:59:21.226Z,97038.25
2022-12-31T23:01:49.496Z,97023.50
2022-12-31T23:04:17.931Z,97031.56
2022-12-31T23:06:47.445Z,97032.66
2022-12-31T23:09:35.131Z,97036.34
2022-12-31T23:12:06.286Z,97034.75
2022-12-31T23:14:52.266Z,97043.56
2022-12-31T23:17:41.338Z,97040.66
2022-12-31T23:20:32.191Z,97052.31
2022-12-31T23:23:12.574Z,97053.94
2022-12-31T23:25:42.812Z,97045.59
2022-12-31T23:28:15.127Z,97057.56
2022-12-31T23:30:44.872Z,97054.13
2022-12-31T23:33:16.623Z,97064.53
2022-12-31T23:35:45.318Z,97064.78
2022-12-31T23:38:14.830Z,97060.13
2022-12-31T23:40:43.276Z,97061.97
2022-12-31T23:43:21.428Z,97066.41
2022-12-31T23:45:51.312Z,97076.19
2022-12-31T23:48:19.588Z,97070.09
2022-12-31T23:50:53.548Z,97072.31
2022-12-31T23:53:23.723Z,97079.59
2022-12-31T23:55:52.606Z,97086.13
2022-12-31T23:58:23.240Z,97089.25
